KBGD/BGD METAR and TAF weather

Enter ICAO airport designator
Station Type Date Time Source
KBGD METAR 2019/08/24 20:51 UTC NOAA

KBGD 242051Z AUTO 18011G19KT 10SM FEW044 31/19 A2994 RMK AO2 SLP096 T03110189 58023


Station Type Date Time Source
KBGD Decoded METAR 2019/08/24 20:51 UTC NOAA

Station name not available
Aug 24, 2019 - 04:51 PM EDT / 2019.08.24 2051 UTC
Wind: from the S (180 degrees) at 13 MPH (11 KT) gusting to 22 MPH (19 KT):0
Visibility: 10 mile(s):0
Sky conditions: mostly clear
Temperature: 88.0 F (31.1 C)
Dew Point: 66.0 F (18.9 C)
Relative Humidity: 48%
Pressure (altimeter): 29.94 in. Hg (1013 hPa)
Pressure tendency: 0.07 inches (2.3 hPa) lower than three hours ago
ob: KBGD 242051Z AUTO 18011G19KT 10SM FEW044 31/19 A2994 RMK AO2 SLP096 T03110189 58023
cycle: 21

Station Type Date Time Source
KBGD TAF UTC NOAA

Error!

Example: see airport list